createdAt,value
2022-11-12T00:00:55.922Z,5.63
2022-11-12T00:03:22.630Z,5.63
2022-11-12T00:05:50.808Z,6.10
2022-11-12T00:08:18.178Z,5.05
2022-11-12T00:10:45.794Z,5.88
2022-11-12T00:13:12.982Z,5.10
2022-11-12T00:15:40.026Z,4.82
2022-11-12T00:18:07.651Z,4.67
2022-11-12T00:20:34.434Z,4.60
2022-11-12T00:23:00.858Z,5.00
2022-11-12T00:25:28.294Z,5.13
2022-11-12T00:27:54.955Z,4.85
2022-11-12T00:30:21.432Z,3.90
2022-11-12T00:32:47.861Z,3.95
2022-11-12T00:35:14.446Z,4.00
2022-11-12T00:37:41.044Z,4.40
2022-11-12T00:40:08.698Z,4.55
2022-11-12T00:42:35.624Z,5.00
2022-11-12T00:45:02.102Z,4.70
2022-11-12T00:47:28.718Z,3.95
2022-11-12T00:49:55.195Z,4.10
2022-11-12T00:52:21.843Z,5.00
2022-11-12T00:54:48.885Z,4.67
2022-11-12T00:57:15.356Z,4.95
2022-11-12T00:59:41.800Z,5.28
2022-11-12T01:02:08.384Z,5.38
2022-11-12T01:04:34.857Z,5.20
2022-11-12T01:07:01.557Z,4.70
2022-11-12T01:09:28.100Z,5.57
2022-11-12T01:11:54.499Z,5.63
2022-11-12T01:14:20.956Z,5.57
2022-11-12T01:16:47.843Z,5.68
2022-11-12T01:19:14.428Z,6.30
2022-11-12T01:21:43.380Z,6.30
2022-11-12T01:24:10.551Z,5.43
2022-11-12T01:26:37.632Z,5.85
2022-11-12T01:29:04.758Z,6.32
2022-11-12T01:31:35.333Z,6.73
2022-11-12T01:34:07.813Z,10.93
2022-11-12T01:36:39.893Z,8.57
2022-11-12T01:39:08.341Z,6.22
2022-11-12T01:41:39.751Z,7.05
2022-11-12T01:44:14.205Z,6.77
2022-11-12T01:46:47.898Z,10.73
2022-11-12T01:49:21.244Z,6.30
2022-11-12T01:51:51.649Z,8.95
2022-11-12T01:54:21.562Z,7.00
2022-11-12T01:56:50.399Z,7.10
2022-11-12T01:59:22.816Z,6.05
2022-11-12T02:01:49.629Z,7.45
2022-11-12T02:04:17.811Z,7.10
2022-11-12T02:06:46.085Z,7.95
2022-11-12T02:09:14.021Z,9.37
2022-11-12T02:11:40.852Z,8.18
2022-11-12T02:14:07.772Z,8.15
2022-11-12T02:16:38.136Z,7.28
2022-11-12T02:19:07.627Z,8.13
2022-11-12T02:21:35.414Z,8.60
2022-11-12T02:24:04.235Z,7.07
2022-11-12T02:26:35.570Z,7.85
2022-11-12T02:29:03.008Z,7.50
2022-11-12T02:31:29.857Z,6.40
2022-11-12T02:33:56.782Z,8.47
2022-11-12T02:36:24.368Z,6.63
2022-11-12T02:38:50.963Z,7.00
2022-11-12T02:41:17.778Z,5.78
2022-11-12T02:43:44.844Z,5.32
2022-11-12T02:46:11.643Z,5.77
2022-11-12T02:48:38.373Z,7.32
2022-11-12T02:51:05.740Z,5.90
2022-11-12T02:53:32.616Z,5.93
2022-11-12T02:56:00.368Z,6.45
2022-11-12T02:58:27.673Z,5.13
2022-11-12T03:00:55.570Z,6.15
2022-11-12T03:03:22.181Z,10.10
2022-11-12T03:05:58.634Z,10.35
2022-11-12T03:08:26.305Z,7.93
2022-11-12T03:10:53.277Z,7.17
2022-11-12T03:13:20.549Z,7.32
2022-11-12T03:15:47.143Z,5.45
2022-11-12T03:18:13.649Z,7.57
2022-11-12T03:20:40.433Z,6.65
2022-11-12T03:23:09.229Z,5.47
2022-11-12T03:25:36.422Z,6.63
2022-11-12T03:28:07.068Z,6.22
2022-11-12T03:30:36.170Z,7.00
2022-11-12T03:33:03.861Z,6.72
2022-11-12T03:35:30.925Z,5.97
2022-11-12T03:37:57.539Z,6.78
2022-11-12T03:40:24.266Z,7.35
2022-11-12T03:42:51.975Z,7.45
2022-11-12T03:45:20.685Z,9.00
2022-11-12T03:47:49.677Z,8.40
2022-11-12T03:50:17.678Z,9.52
2022-11-12T03:52:48.859Z,7.43
2022-11-12T03:55:16.956Z,8.07
2022-11-12T03:57:44.413Z,7.85
2022-11-12T04:00:12.388Z,6.63
2022-11-12T04:02:39.092Z,8.10
2022-11-12T04:05:25.792Z,7.78
2022-11-12T04:08:22.797Z,6.63
2022-11-12T04:10:49.536Z,6.93
2022-11-12T04:13:28.525Z,6.03
2022-11-12T04:16:17.280Z,6.78
2022-11-12T04:19:03.833Z,7.53
2022-11-12T04:21:51.834Z,7.10
2022-11-12T04:24:50.190Z,6.63
2022-11-12T04:27:17.965Z,5.73
2022-11-12T04:30:04.528Z,5.68
2022-11-12T04:32:33.264Z,6.40
2022-11-12T04:35:00.071Z,6.45
2022-11-12T04:37:28.915Z,6.70
2022-11-12T04:39:55.674Z,6.77
2022-11-12T04:42:40.716Z,7.75
2022-11-12T04:45:09.625Z,7.55
2022-11-12T04:47:38.981Z,7.53
2022-11-12T04:50:11.230Z,7.13
2022-11-12T04:52:37.720Z,7.37
2022-11-12T04:55:04.705Z,8.45
2022-11-12T04:57:31.548Z,7.68
2022-11-12T04:59:58.164Z,7.85
2022-11-12T05:02:24.749Z,8.02
2022-11-12T05:04:51.292Z,8.10
2022-11-12T05:07:17.956Z,8.95
2022-11-12T05:09:45.097Z,8.55
2022-11-12T05:12:12.230Z,7.30
2022-11-12T05:14:38.895Z,8.13
2022-11-12T05:17:06.067Z,7.80
2022-11-12T05:19:34.626Z,7.53
2022-11-12T05:22:08.843Z,7.53
2022-11-12T05:24:43.052Z,7.15
2022-11-12T05:27:13.331Z,7.70
2022-11-12T05:29:40.113Z,8.00
2022-11-12T05:32:08.423Z,7.95
2022-11-12T05:34:35.097Z,7.35
2022-11-12T05:37:03.613Z,8.57
2022-11-12T05:39:30.272Z,7.93
2022-11-12T05:42:13.778Z,6.47
2022-11-12T05:44:40.920Z,6.22
2022-11-12T05:47:07.542Z,7.65
2022-11-12T05:49:33.951Z,7.72
2022-11-12T05:52:00.363Z,7.45
2022-11-12T05:54:26.932Z,7.07
2022-11-12T05:56:53.713Z,7.20
2022-11-12T05:59:20.285Z,6.38
2022-11-12T06:01:47.060Z,7.30
2022-11-12T06:04:14.902Z,7.18
2022-11-12T06:06:42.671Z,6.97
2022-11-12T06:09:10.788Z,6.18
2022-11-12T06:11:38.024Z,7.30
2022-11-12T06:14:05.542Z,7.28
2022-11-12T06:16:32.324Z,7.65
2022-11-12T06:18:59.443Z,6.23
2022-11-12T06:21:27.914Z,5.82
2022-11-12T06:23:58.008Z,6.75
2022-11-12T06:26:26.924Z,5.97
2022-11-12T06:28:53.951Z,5.50
2022-11-12T06:31:21.182Z,6.17
2022-11-12T06:33:48.606Z,6.90
2022-11-12T06:36:17.658Z,6.75
2022-11-12T06:38:45.282Z,5.60
2022-11-12T06:41:13.326Z,6.60
2022-11-12T06:43:40.819Z,5.60
2022-11-12T06:46:10.997Z,6.15
2022-11-12T06:48:37.531Z,6.28
2022-11-12T06:51:10.921Z,6.07
2022-11-12T06:53:37.582Z,6.25
2022-11-12T06:56:05.996Z,6.47
2022-11-12T06:58:32.887Z,6.55
2022-11-12T07:01:11.151Z,6.80
2022-11-12T07:03:39.488Z,6.70
2022-11-12T07:06:09.953Z,7.93
2022-11-12T07:08:37.137Z,7.13
2022-11-12T07:11:03.896Z,7.95
2022-11-12T07:13:32.615Z,7.38
2022-11-12T07:16:00.903Z,8.55
2022-11-12T07:18:29.219Z,8.20
2022-11-12T07:21:00.752Z,7.33
2022-11-12T07:23:28.873Z,8.05
2022-11-12T07:25:58.061Z,9.13
2022-11-12T07:28:26.157Z,8.88
2022-11-12T07:31:02.494Z,7.43
2022-11-12T07:33:30.169Z,8.07
2022-11-12T07:35:59.163Z,8.52
2022-11-12T07:38:26.550Z,9.18
2022-11-12T07:40:59.370Z,9.40
2022-11-12T07:43:26.083Z,7.80
2022-11-12T07:45:52.556Z,7.33
2022-11-12T07:48:19.024Z,7.10
2022-11-12T07:50:45.531Z,7.15
2022-11-12T07:53:12.206Z,6.80
2022-11-12T07:55:38.734Z,6.97
2022-11-12T07:58:05.335Z,6.97
2022-11-12T08:00:31.776Z,7.38
2022-11-12T08:03:02.472Z,6.90
2022-11-12T08:05:29.145Z,7.05
2022-11-12T08:07:57.004Z,7.07
2022-11-12T08:10:23.719Z,6.73
2022-11-12T08:12:50.727Z,7.28
2022-11-12T08:15:17.224Z,6.95
2022-11-12T08:17:44.017Z,7.57
2022-11-12T08:20:10.896Z,8.05
2022-11-12T08:22:37.404Z,6.87
2022-11-12T08:25:04.250Z,7.28
2022-11-12T08:27:30.793Z,8.02
2022-11-12T08:29:57.500Z,7.65
2022-11-12T08:32:24.662Z,9.80
2022-11-12T08:34:51.536Z,11.00
2022-11-12T08:37:18.262Z,9.55
2022-11-12T08:39:44.918Z,9.38
2022-11-12T08:42:11.529Z,8.68
2022-11-12T08:44:38.269Z,8.85
2022-11-12T08:47:05.978Z,8.83
2022-11-12T08:49:32.439Z,8.60
2022-11-12T08:51:58.960Z,9.10
2022-11-12T08:54:25.432Z,8.80
2022-11-12T08:56:52.200Z,8.65
2022-11-12T08:59:18.851Z,8.13
2022-11-12T09:01:45.606Z,7.55
2022-11-12T09:04:12.210Z,8.27
2022-11-12T09:06:38.821Z,7.93
2022-11-12T09:09:05.669Z,7.95
2022-11-12T09:11:32.138Z,7.83
2022-11-12T09:13:59.188Z,8.05
2022-11-12T09:16:25.777Z,7.90
2022-11-12T09:18:52.336Z,7.60
2022-11-12T09:21:22.931Z,8.73
2022-11-12T09:23:55.553Z,7.10
2022-11-12T09:26:22.377Z,7.13
2022-11-12T09:28:49.189Z,7.38
2022-11-12T09:31:15.822Z,7.82
2022-11-12T09:33:42.517Z,7.95
2022-11-12T09:36:09.405Z,7.80
2022-11-12T09:38:36.023Z,7.35
2022-11-12T09:41:20.673Z,6.85
2022-11-12T09:43:52.167Z,7.40
2022-11-12T09:46:31.604Z,6.95
2022-11-12T09:49:07.933Z,7.10
2022-11-12T09:51:40.036Z,7.40
2022-11-12T09:54:24.051Z,7.32
2022-11-12T09:56:52.204Z,7.28
2022-11-12T09:59:19.388Z,7.22
2022-11-12T10:01:55.933Z,6.30
2022-11-12T10:04:39.191Z,7.18
2022-11-12T10:07:17.270Z,7.68
2022-11-12T10:10:04.188Z,7.50
2022-11-12T10:13:01.202Z,6.88
2022-11-12T10:16:21.597Z,7.43
2022-11-12T10:19:03.300Z,7.22
2022-11-12T10:21:56.427Z,6.60
2022-11-12T10:24:24.201Z,8.82
2022-11-12T10:26:52.944Z,8.20
2022-11-12T10:29:36.100Z,8.23
2022-11-12T10:32:05.262Z,8.07
2022-11-12T10:34:32.050Z,7.57
2022-11-12T10:37:07.580Z,7.57
2022-11-12T10:39:43.434Z,7.70
2022-11-12T10:42:12.985Z,8.27
2022-11-12T10:44:40.223Z,9.05
2022-11-12T10:47:33.117Z,8.68
2022-11-12T10:50:08.437Z,7.80
2022-11-12T10:52:55.990Z,7.90
2022-11-12T10:55:27.035Z,7.80
2022-11-12T10:58:26.010Z,7.78
2022-11-12T11:01:02.112Z,8.63
2022-11-12T11:03:33.778Z,8.55
2022-11-12T11:06:01.975Z,8.00
2022-11-12T11:08:42.267Z,8.90
2022-11-12T11:11:18.549Z,6.78
2022-11-12T11:13:54.319Z,9.80
2022-11-12T11:16:32.646Z,6.68
2022-11-12T11:19:04.157Z,7.07
2022-11-12T11:21:48.816Z,7.47
2022-11-12T11:24:42.189Z,5.88
2022-11-12T11:27:39.487Z,5.95
2022-11-12T11:30:21.133Z,4.80
2022-11-12T11:33:25.285Z,8.00
2022-11-12T11:36:30.249Z,7.80
2022-11-12T11:39:01.977Z,6.68
2022-11-12T11:42:03.643Z,6.40
2022-11-12T11:45:08.480Z,6.65
2022-11-12T11:48:02.855Z,6.38
2022-11-12T11:50:34.327Z,6.70
2022-11-12T11:53:21.241Z,6.30
2022-11-12T11:56:00.578Z,7.35
2022-11-12T11:58:59.225Z,7.28
2022-11-12T12:01:50.290Z,7.13
2022-11-12T12:04:48.418Z,6.80
2022-11-12T12:07:44.347Z,6.28
2022-11-12T12:10:46.262Z,6.18
2022-11-12T12:13:50.400Z,6.05
2022-11-12T12:16:37.775Z,7.75
2022-11-12T12:19:39.044Z,7.37
2022-11-12T12:22:12.548Z,7.00
2022-11-12T12:24:42.139Z,6.80
2022-11-12T12:27:20.835Z,6.85
2022-11-12T12:29:52.832Z,5.75
2022-11-12T12:32:48.567Z,5.73
2022-11-12T12:35:46.879Z,5.05
2022-11-12T12:38:38.951Z,4.95
2022-11-12T12:41:20.122Z,5.10
2022-11-12T12:43:54.642Z,5.95
2022-11-12T12:46:26.999Z,5.50
2022-11-12T12:48:55.248Z,5.65
2022-11-12T12:51:22.787Z,4.72
2022-11-12T12:53:49.432Z,4.97
2022-11-12T12:56:35.893Z,5.80
2022-11-12T12:59:03.918Z,4.93
2022-11-12T13:01:35.565Z,5.70
2022-11-12T13:04:05.250Z,5.07
2022-11-12T13:06:38.053Z,4.47
2022-11-12T13:09:20.807Z,4.82
2022-11-12T13:12:04.674Z,4.73
2022-11-12T13:14:59.547Z,5.43
2022-11-12T13:17:44.267Z,6.05
2022-11-12T13:20:31.790Z,5.13
2022-11-12T13:22:58.713Z,5.65
2022-11-12T13:25:28.827Z,5.30
2022-11-12T13:28:11.555Z,5.43
2022-11-12T13:31:02.600Z,4.90
2022-11-12T13:33:32.935Z,5.32
2022-11-12T13:36:24.359Z,5.45
2022-11-12T13:38:58.780Z,4.80
2022-11-12T13:41:46.341Z,5.25
2022-11-12T13:44:17.046Z,5.32
2022-11-12T13:46:45.795Z,5.57
2022-11-12T13:49:15.516Z,7.35
2022-11-12T13:51:52.108Z,8.60
2022-11-12T13:54:44.941Z,9.10
2022-11-12T13:57:40.801Z,9.48
2022-11-12T14:00:23.744Z,9.45
2022-11-12T14:02:57.323Z,10.85
2022-11-12T14:05:28.144Z,11.53
2022-11-12T14:08:17.194Z,14.80
2022-11-12T14:11:22.783Z,15.90
2022-11-12T14:14:16.998Z,14.48
2022-11-12T14:17:24.512Z,12.80
2022-11-12T14:20:29.084Z,9.87
2022-11-12T14:22:55.766Z,8.38
2022-11-12T14:25:25.822Z,7.68
2022-11-12T14:27:57.637Z,7.75
2022-11-12T14:30:25.807Z,8.73
2022-11-12T14:33:00.511Z,9.43
2022-11-12T14:35:38.244Z,9.98
2022-11-12T14:38:16.860Z,10.43
2022-11-12T14:40:51.422Z,9.70
2022-11-12T14:43:27.381Z,10.00
2022-11-12T14:45:55.968Z,9.67
2022-11-12T14:48:27.845Z,10.82
2022-11-12T14:51:00.227Z,10.23
2022-11-12T14:53:33.591Z,10.48
2022-11-12T14:56:03.942Z,9.32
2022-11-12T14:58:35.758Z,9.23
2022-11-12T15:02:08.971Z,9.02
2022-11-12T15:04:41.400Z,10.20
2022-11-12T15:07:28.631Z,12.27
2022-11-12T15:14:08.414Z,13.03
2022-11-12T15:16:35.718Z,13.80
2022-11-12T15:19:29.820Z,15.07
2022-11-12T15:22:01.322Z,13.82
2022-11-12T15:25:05.324Z,10.85
2022-11-12T15:27:39.856Z,10.20
2022-11-12T15:30:24.817Z,10.57
2022-11-12T15:33:13.731Z,9.63
2022-11-12T15:35:47.266Z,11.90
2022-11-12T15:38:39.780Z,11.43
2022-11-12T15:41:22.548Z,12.13
2022-11-12T15:43:52.789Z,11.52
2022-11-12T15:49:25.211Z,11.60
2022-11-12T15:52:01.928Z,13.95
2022-11-12T15:54:40.999Z,12.00
2022-11-12T15:57:44.953Z,9.68
2022-11-12T16:00:20.100Z,8.90
2022-11-12T16:02:57.591Z,9.50
2022-11-12T16:05:24.484Z,7.97
2022-11-12T16:07:51.479Z,9.63
2022-11-12T16:10:31.874Z,7.68
2022-11-12T16:13:00.787Z,7.18
2022-11-12T16:15:27.425Z,7.90
2022-11-12T16:17:56.271Z,6.22
2022-11-12T16:20:26.615Z,6.60
2022-11-12T16:22:53.443Z,6.85
2022-11-12T16:25:20.787Z,7.07
2022-11-12T16:27:52.900Z,7.88
2022-11-12T16:30:24.828Z,7.03
2022-11-12T16:32:51.850Z,7.07
2022-11-12T16:35:19.000Z,7.00
2022-11-12T16:37:46.819Z,6.78
2022-11-12T16:40:16.656Z,6.55
2022-11-12T16:42:45.819Z,6.10
2022-11-12T16:45:20.308Z,6.83
2022-11-12T16:47:50.744Z,6.30
2022-11-12T16:50:21.949Z,6.35
2022-11-12T16:52:49.261Z,6.35
2022-11-12T16:55:15.990Z,5.95
2022-11-12T16:57:43.201Z,6.30
2022-11-12T17:00:18.163Z,6.43
2022-11-12T17:02:49.356Z,8.07
2022-11-12T17:05:23.079Z,6.95
2022-11-12T17:07:50.756Z,7.07
2022-11-12T17:10:17.335Z,6.77
2022-11-12T17:12:48.763Z,6.10
2022-11-12T17:15:15.319Z,6.68
2022-11-12T17:17:41.880Z,6.38
2022-11-12T17:20:09.128Z,7.63
2022-11-12T17:22:36.352Z,7.57
2022-11-12T17:25:03.498Z,8.80
2022-11-12T17:27:30.025Z,8.65
2022-11-12T17:29:56.569Z,8.38
2022-11-12T17:32:23.768Z,8.50
2022-11-12T17:34:50.270Z,9.10
2022-11-12T17:37:16.918Z,8.80
2022-11-12T17:39:44.446Z,8.65
2022-11-12T17:42:11.175Z,8.45
2022-11-12T17:44:37.957Z,9.98
2022-11-12T17:47:04.870Z,8.93
2022-11-12T17:49:31.561Z,9.30
2022-11-12T17:51:58.136Z,11.05
2022-11-12T17:54:24.857Z,9.43
2022-11-12T17:56:51.363Z,9.25
2022-11-12T17:59:18.077Z,10.63
2022-11-12T18:01:44.733Z,9.00
2022-11-12T18:04:11.372Z,10.00
2022-11-12T18:06:38.273Z,10.68
2022-11-12T18:09:07.839Z,11.30
2022-11-12T18:11:48.029Z,10.17
2022-11-12T18:14:15.329Z,11.05
2022-11-12T18:16:42.375Z,10.38
2022-11-12T18:19:11.247Z,9.95
2022-11-12T18:21:40.665Z,9.20
2022-11-12T18:24:12.217Z,8.80
2022-11-12T18:26:39.232Z,10.25
2022-11-12T18:29:05.988Z,10.55
2022-11-12T18:31:32.638Z,13.15
2022-11-12T18:33:59.274Z,13.25
2022-11-12T18:36:26.483Z,12.20
2022-11-12T18:38:54.828Z,10.65
2022-11-12T18:41:27.051Z,10.93
2022-11-12T18:43:54.793Z,15.80
2022-11-12T18:46:21.799Z,18.00
2022-11-12T18:48:48.651Z,17.03
2022-11-12T18:51:17.405Z,17.55
2022-11-12T18:53:45.751Z,17.88
2022-11-12T18:56:17.754Z,17.55
2022-11-12T18:58:45.001Z,16.92
2022-11-12T19:01:22.270Z,18.10
2022-11-12T19:03:53.635Z,17.40
2022-11-12T19:09:02.207Z,20.40
2022-11-12T19:11:29.145Z,19.75
2022-11-12T19:13:56.099Z,20.23
2022-11-12T19:16:23.813Z,19.38
2022-11-12T19:18:51.381Z,19.70
2022-11-12T19:21:20.731Z,19.70
2022-11-12T19:23:52.723Z,22.35
2022-11-12T19:26:21.871Z,23.50
2022-11-12T19:28:48.528Z,23.45
2022-11-12T19:31:17.844Z,24.15
2022-11-12T19:33:44.997Z,28.55
2022-11-12T19:36:20.594Z,33.10
2022-11-12T19:38:47.159Z,34.10
2022-11-12T19:41:19.779Z,34.65
2022-11-12T19:43:47.174Z,37.45
2022-11-12T19:46:14.677Z,40.03
2022-11-12T19:48:41.280Z,37.53
2022-11-12T19:51:09.888Z,36.93
2022-11-12T19:53:44.647Z,36.78
2022-11-12T19:56:13.766Z,36.10
2022-11-12T19:58:44.754Z,36.00
2022-11-12T20:01:13.630Z,35.63
2022-11-12T20:03:40.708Z,33.63
2022-11-12T20:06:13.254Z,32.58
2022-11-12T20:08:40.325Z,36.53
2022-11-12T20:11:06.856Z,33.67
2022-11-12T20:13:33.399Z,33.20
2022-11-12T20:16:05.132Z,34.70
2022-11-12T20:18:31.564Z,31.88
2022-11-12T20:20:58.370Z,31.08
2022-11-12T20:23:26.281Z,31.75
2022-11-12T20:25:53.360Z,28.25
2022-11-12T20:28:19.948Z,26.20
2022-11-12T20:30:46.943Z,26.45
2022-11-12T20:33:14.007Z,28.08
2022-11-12T20:35:40.889Z,25.85
2022-11-12T20:38:07.793Z,28.60
2022-11-12T20:40:34.603Z,28.77
2022-11-12T20:43:01.176Z,28.42
2022-11-12T20:45:27.851Z,27.90
2022-11-12T20:47:57.691Z,26.38
2022-11-12T20:50:24.311Z,27.50
2022-11-12T20:52:51.078Z,25.63
2022-11-12T20:55:17.572Z,26.67
2022-11-12T20:57:44.494Z,26.83
2022-11-12T21:00:14.187Z,26.65
2022-11-12T21:02:42.019Z,26.02
2022-11-12T21:05:08.780Z,25.27
2022-11-12T21:07:35.440Z,26.42
2022-11-12T21:10:02.148Z,28.58
2022-11-12T21:12:28.631Z,26.95
2022-11-12T21:14:55.366Z,28.20
2022-11-12T21:17:21.988Z,27.00
2022-11-12T21:19:49.089Z,32.30
2022-11-12T21:22:16.790Z,29.63
2022-11-12T21:24:43.280Z,26.30
2022-11-12T21:27:11.660Z,25.65
2022-11-12T21:29:38.305Z,23.63
2022-11-12T21:32:05.489Z,24.60
2022-11-12T21:34:31.988Z,25.30
2022-11-12T21:36:58.634Z,24.60
2022-11-12T21:39:25.197Z,25.10
2022-11-12T21:41:54.120Z,22.40
2022-11-12T21:44:21.266Z,20.13
2022-11-12T21:46:47.942Z,21.85
2022-11-12T21:49:14.449Z,33.78
2022-11-12T21:51:40.988Z,32.08
2022-11-12T21:54:07.900Z,28.93
2022-11-12T21:56:34.958Z,26.80
2022-11-12T21:59:04.732Z,26.02
2022-11-12T22:01:34.124Z,26.88
2022-11-12T22:04:01.266Z,28.30
2022-11-12T22:06:29.715Z,29.33
2022-11-12T22:08:57.649Z,28.00
2022-11-12T22:11:26.411Z,30.98
2022-11-12T22:13:53.161Z,28.65
2022-11-12T22:16:22.519Z,27.27
2022-11-12T22:18:51.394Z,27.30
2022-11-12T22:21:40.248Z,26.95
2022-11-12T22:24:07.553Z,28.15
2022-11-12T22:26:34.185Z,28.13
2022-11-12T22:29:01.129Z,29.08
2022-11-12T22:31:30.239Z,27.70
2022-11-12T22:33:58.509Z,26.33
2022-11-12T22:36:27.397Z,27.70
2022-11-12T22:38:54.935Z,28.35
2022-11-12T22:41:26.985Z,28.42
2022-11-12T22:43:55.981Z,25.13
2022-11-12T22:46:26.636Z,24.08
2022-11-12T22:48:54.457Z,27.13
2022-11-12T22:51:25.509Z,24.70
2022-11-12T22:53:57.268Z,25.52
2022-11-12T22:56:24.636Z,22.67
2022-11-12T22:58:51.553Z,23.27
2022-11-12T23:01:21.362Z,24.40
2022-11-12T23:03:48.477Z,24.35
2022-11-12T23:06:15.049Z,24.38
2022-11-12T23:08:42.470Z,22.73
2022-11-12T23:11:11.881Z,24.42
2022-11-12T23:13:38.806Z,23.65
2022-11-12T23:16:09.377Z,24.77
2022-11-12T23:18:36.007Z,24.60
2022-11-12T23:21:04.879Z,23.73
2022-11-12T23:23:31.569Z,24.33
2022-11-12T23:26:37.165Z,27.95
2022-11-12T23:29:03.894Z,25.80
2022-11-12T23:31:32.075Z,25.17
2022-11-12T23:34:00.440Z,25.47
2022-11-12T23:36:27.710Z,23.30
2022-11-12T23:38:54.598Z,23.58
2022-11-12T23:41:23.008Z,23.50
2022-11-12T23:43:50.489Z,26.23
2022-11-12T23:46:17.492Z,23.07
2022-11-12T23:48:44.694Z,25.27
2022-11-12T23:51:16.770Z,22.70
2022-11-12T23:53:43.407Z,24.45
2022-11-12T23:56:14.153Z,21.80
2022-11-12T23:58:43.880Z,23.47
